Time;durP1;ratioP1;P1;durP2;ratioP2;P2;SDS_P1;SDS_P2;PMS_P1;PMS_P2;Temp;Humidity;BMP_temperature;BMP_pressure;BME280_temperature;BME280_humidity;BME280_pressure;Samples;Min_cycle;Max_cycle;Signal;HPM_P1;HPM_P2
2023/07/19 00:02:15;;;;;;;4.15;1.92;;;23.70;56.70;;;;;;2283756;55;21025;-71
2023/07/19 00:04:43;;;;;;;2.92;1.50;;;23.70;56.70;;;;;;2283468;55;20912;-70
2023/07/19 00:07:11;;;;;;;3.37;1.33;;;23.60;56.80;;;;;;2291993;55;21760;-67
2023/07/19 00:09:37;;;;;;;4.10;1.75;;;23.60;56.90;;;;;;2528031;54;20919;-70
2023/07/19 00:12:08;;;;;;;3.70;1.83;;;23.60;57.00;;;;;;2501968;54;20946;-69
2023/07/19 00:14:35;;;;;;;3.60;1.58;;;23.50;57.00;;;;;;2293225;55;21028;-68
2023/07/19 00:17:03;;;;;;;3.75;1.87;;;23.50;57.00;;;;;;2292125;55;20996;-68
2023/07/19 00:19:29;;;;;;;3.45;1.98;;;23.50;57.10;;;;;;2291336;55;20951;-68
2023/07/19 00:21:55;;;;;;;3.97;1.98;;;23.50;57.20;;;;;;2525063;54;21004;-70
2023/07/19 00:24:22;;;;;;;3.55;1.65;;;23.50;57.30;;;;;;2526813;54;20924;-67
2023/07/19 00:26:48;;;;;;;3.10;1.50;;;23.50;57.40;;;;;;2526097;54;20980;-67
2023/07/19 00:29:15;;;;;;;3.72;2.00;;;23.50;57.40;;;;;;2271841;55;20905;-68
2023/07/19 00:31:41;;;;;;;3.92;1.87;;;23.40;57.40;;;;;;2520855;54;21057;-67
2023/07/19 00:34:08;;;;;;;3.37;1.92;;;23.40;57.50;;;;;;2275890;55;21438;-66
2023/07/19 00:36:34;;;;;;;4.35;1.50;;;23.50;57.60;;;;;;2292627;55;21532;-68
2023/07/19 00:39:03;;;;;;;3.60;1.52;;;23.50;57.50;;;;;;2523444;54;20945;-70
2023/07/19 00:41:29;;;;;;;3.90;1.87;;;23.40;57.50;;;;;;2273588;55;21001;-67
2023/07/19 00:43:55;;;;;;;3.75;2.10;;;23.40;57.60;;;;;;2292047;55;20944;-68
2023/07/19 00:46:23;;;;;;;3.67;1.65;;;23.40;57.60;;;;;;2526441;54;20972;-67
2023/07/19 00:48:51;;;;;;;2.92;1.48;;;23.40;57.60;;;;;;2527938;54;20945;-68
2023/07/19 00:51:18;;;;;;;4.40;1.98;;;23.40;57.60;;;;;;2527751;54;20935;-70
2023/07/19 00:53:47;;;;;;;4.25;1.92;;;23.40;57.60;;;;;;2506143;54;21816;-68
2023/07/19 00:56:14;;;;;;;3.30;1.70;;;23.40;57.70;;;;;;2286920;55;20896;-69
2023/07/19 00:58:41;;;;;;;3.60;1.73;;;23.40;57.70;;;;;;2293213;55;21086;-68
2023/07/19 01:01:08;;;;;;;3.53;1.48;;;23.40;57.70;;;;;;2286723;55;21806;-70
2023/07/19 01:03:34;;;;;;;4.05;2.25;;;23.40;57.80;;;;;;2273058;56;20974;-68
2023/07/19 01:06:03;;;;;;;4.07;1.67;;;23.40;57.80;;;;;;2526581;54;20912;-69
2023/07/19 01:08:29;;;;;;;3.10;1.52;;;23.40;57.80;;;;;;2527885;54;20929;-68
2023/07/19 01:10:56;;;;;;;3.28;1.60;;;23.40;57.80;;;;;;2292404;55;21395;-68
2023/07/19 01:13:22;;;;;;;3.90;2.03;;;23.40;57.80;;;;;;2291746;55;21028;-70
2023/07/19 01:15:48;;;;;;;4.15;1.60;;;23.40;57.90;;;;;;2292729;55;21823;-68
2023/07/19 01:18:17;;;;;;;3.47;2.00;;;23.40;57.90;;;;;;2292489;55;20955;-68
2023/07/19 01:20:44;;;;;;;3.08;1.70;;;23.40;57.90;;;;;;2292977;55;20973;-68
2023/07/19 01:23:13;;;;;;;3.33;1.83;;;23.40;57.80;;;;;;2292936;55;21468;-67
2023/07/19 01:25:39;;;;;;;3.30;1.77;;;23.40;57.90;;;;;;2282019;55;21045;-67
2023/07/19 01:28:06;;;;;;;3.58;1.73;;;23.40;57.90;;;;;;2286177;55;20980;-69
2023/07/19 01:30:32;;;;;;;3.55;1.83;;;23.40;58.00;;;;;;2292268;55;21007;-67
2023/07/19 01:33:01;;;;;;;4.18;1.73;;;23.40;57.90;;;;;;2527122;54;21437;-69
2023/07/19 01:35:31;;;;;;;3.78;1.75;;;23.40;58.00;;;;;;2292266;55;20923;-68
2023/07/19 01:37:57;;;;;;;4.00;2.10;;;23.40;58.00;;;;;;2527612;54;21433;-71
2023/07/19 01:40:23;;;;;;;3.22;1.60;;;23.40;58.00;;;;;;2292950;55;20932;-68
2023/07/19 01:42:52;;;;;;;3.37;1.58;;;23.30;57.90;;;;;;2292826;55;21004;-70
2023/07/19 01:45:19;;;;;;;3.00;1.60;;;23.30;57.90;;;;;;2527559;54;20988;-68
2023/07/19 01:47:45;;;;;;;3.15;1.58;;;23.40;58.10;;;;;;2293198;55;20988;-67
2023/07/19 01:50:12;;;;;;;3.83;1.85;;;23.30;57.90;;;;;;2276253;55;21478;-67
2023/07/19 01:52:40;;;;;;;4.10;1.70;;;23.30;57.90;;;;;;2527034;54;20905;-69
2023/07/19 01:55:06;;;;;;;3.62;1.52;;;23.30;57.90;;;;;;2527923;54;21552;-68
2023/07/19 01:57:33;;;;;;;3.70;1.60;;;23.30;57.90;;;;;;2289049;55;20973;-68
2023/07/19 01:59:59;;;;;;;3.40;1.60;;;23.30;57.90;;;;;;2278943;55;20916;-70
2023/07/19 02:02:25;;;;;;;3.42;1.60;;;23.20;57.80;;;;;;2527225;54;20908;-69
2023/07/19 02:04:52;;;;;;;2.87;1.37;;;23.20;57.80;;;;;;2293068;56;20909;-71
2023/07/19 02:07:19;;;;;;;3.15;1.70;;;23.20;57.80;;;;;;2292101;55;20968;-69
2023/07/19 02:09:46;;;;;;;3.00;1.60;;;23.20;57.80;;;;;;2528436;54;21378;-66
2023/07/19 02:12:12;;;;;;;2.53;1.40;;;23.10;57.70;;;;;;2292769;56;21263;-68
2023/07/19 02:14:42;;;;;;;3.60;1.60;;;23.10;57.70;;;;;;2517212;54;20930;-68
2023/07/19 02:17:09;;;;;;;3.08;1.50;;;23.10;57.80;;;;;;2270276;55;21010;-68
2023/07/19 02:19:36;;;;;;;5.15;1.90;;;23.10;57.90;;;;;;2290855;55;20938;-67
2023/07/19 02:22:03;;;;;;;4.07;1.50;;;23.00;57.90;;;;;;2528221;54;20956;-67
2023/07/19 02:24:29;;;;;;;3.22;1.50;;;23.00;57.90;;;;;;2528327;54;20916;-67
2023/07/19 02:26:59;;;;;;;2.78;1.30;;;23.00;58.00;;;;;;2526665;54;21505;-69
2023/07/19 02:29:25;;;;;;;3.22;1.60;;;23.00;58.00;;;;;;2271988;55;20924;-67
2023/07/19 02:31:52;;;;;;;3.20;1.70;;;22.90;57.90;;;;;;2293110;55;20919;-70
2023/07/19 02:34:20;;;;;;;3.90;1.77;;;22.90;58.00;;;;;;2528508;54;20904;-69
2023/07/19 02:36:49;;;;;;;3.70;1.52;;;22.90;58.00;;;;;;2528047;54;20928;-67
2023/07/19 02:39:15;;;;;;;3.58;1.87;;;22.90;58.00;;;;;;2502607;54;20980;-67
2023/07/19 02:41:42;;;;;;;2.85;1.50;;;22.80;58.00;;;;;;2527318;54;21449;-69
2023/07/19 02:44:08;;;;;;;3.25;1.92;;;22.80;58.00;;;;;;2527527;54;20981;-66
2023/07/19 02:46:35;;;;;;;4.62;1.65;;;22.80;58.10;;;;;;2288290;55;21053;-67
2023/07/19 02:49:05;;;;;;;3.58;1.70;;;22.80;58.10;;;;;;2510617;54;20928;-71
2023/07/19 02:51:33;;;;;;;3.50;1.77;;;22.70;58.00;;;;;;2293155;56;21032;-69
2023/07/19 02:54:00;;;;;;;4.10;1.80;;;22.70;58.00;;;;;;2527639;54;20928;-68
2023/07/19 02:56:30;;;;;;;4.65;1.60;;;22.70;58.10;;;;;;2528056;54;20909;-67
2023/07/19 02:58:56;;;;;;;3.55;1.98;;;22.70;58.10;;;;;;2519858;54;20965;-68
2023/07/19 03:01:25;;;;;;;3.85;1.92;;;22.70;58.10;;;;;;2276795;55;21426;-67
2023/07/19 03:03:52;;;;;;;4.40;2.20;;;22.60;58.10;;;;;;2500843;54;20920;-71
2023/07/19 03:06:20;;;;;;;4.47;2.17;;;22.60;58.10;;;;;;2293062;55;21039;-68
2023/07/19 03:08:46;;;;;;;3.75;1.92;;;22.60;58.20;;;;;;2527645;54;20897;-67
2023/07/19 03:11:12;;;;;;;4.30;2.10;;;22.60;58.30;;;;;;2503790;54;20958;-67
2023/07/19 03:13:40;;;;;;;3.53;1.90;;;22.60;58.30;;;;;;2281129;55;21029;-67
2023/07/19 03:16:06;;;;;;;3.28;1.60;;;22.60;58.50;;;;;;2284622;55;20901;-68
2023/07/19 03:18:32;;;;;;;3.62;2.00;;;22.60;58.40;;;;;;2528399;54;21386;-69
2023/07/19 03:20:59;;;;;;;3.58;2.08;;;22.50;58.40;;;;;;2290559;55;20977;-67
2023/07/19 03:23:26;;;;;;;4.62;2.15;;;22.50;58.50;;;;;;2508928;54;21019;-68
2023/07/19 03:25:53;;;;;;;4.07;2.25;;;22.50;58.60;;;;;;2527773;54;21000;-68
2023/07/19 03:28:20;;;;;;;3.60;2.12;;;22.50;58.70;;;;;;2527174;54;20936;-67
2023/07/19 03:30:49;;;;;;;4.05;2.05;;;22.50;58.80;;;;;;2528227;54;20916;-66
2023/07/19 03:33:16;;;;;;;4.28;2.00;;;22.50;58.80;;;;;;2276082;55;21044;-67
2023/07/19 03:35:42;;;;;;;4.25;2.30;;;22.50;58.90;;;;;;2290929;55;20924;-71
2023/07/19 03:38:08;;;;;;;3.80;1.90;;;22.50;58.90;;;;;;2292294;55;20931;-69
2023/07/19 03:40:35;;;;;;;3.75;2.28;;;22.50;59.00;;;;;;2528251;54;21365;-70
2023/07/19 03:43:02;;;;;;;3.03;1.73;;;22.50;59.10;;;;;;2527361;54;21004;-68
2023/07/19 03:45:28;;;;;;;4.07;2.12;;;22.50;59.10;;;;;;2293653;55;21030;-69
2023/07/19 03:47:55;;;;;;;3.95;2.10;;;22.50;59.10;;;;;;2292605;55;21453;-68
2023/07/19 03:50:24;;;;;;;4.30;2.20;;;22.50;59.20;;;;;;2292988;55;20952;-67
2023/07/19 03:52:53;;;;;;;3.80;2.05;;;22.50;59.20;;;;;;2528373;54;20928;-68
2023/07/19 03:55:20;;;;;;;3.53;1.80;;;22.50;59.30;;;;;;2293120;55;20892;-68
2023/07/19 03:57:47;;;;;;;5.40;2.20;;;22.50;59.30;;;;;;2292743;55;20902;-67
2023/07/19 04:00:13;;;;;;;3.80;2.30;;;22.60;59.40;;;;;;2528076;54;21741;-71
2023/07/19 04:02:40;;;;;;;3.78;2.03;;;22.60;59.50;;;;;;2500251;54;1471106;-68
2023/07/19 04:05:06;;;;;;;3.58;1.83;;;22.60;59.40;;;;;;2503227;54;20980;-69
2023/07/19 04:07:33;;;;;;;2.92;1.67;;;22.60;59.40;;;;;;2522751;54;21086;-67
2023/07/19 04:09:59;;;;;;;3.87;1.80;;;22.70;59.50;;;;;;2292462;55;20936;-68
2023/07/19 04:12:26;;;;;;;4.12;2.28;;;22.70;59.50;;;;;;2500983;54;20948;-69
2023/07/19 04:14:52;;;;;;;4.05;1.92;;;22.70;59.60;;;;;;2292754;56;20965;-67
2023/07/19 04:17:19;;;;;;;3.87;2.12;;;22.70;59.60;;;;;;2528359;54;20964;-68
2023/07/19 04:19:45;;;;;;;3.72;1.98;;;22.70;59.50;;;;;;2527099;54;21465;-67
2023/07/19 04:22:15;;;;;;;3.03;1.80;;;22.70;59.50;;;;;;2526650;54;20952;-71
2023/07/19 04:24:41;;;;;;;3.50;1.60;;;22.70;59.50;;;;;;2527597;54;21473;-68
2023/07/19 04:27:08;;;;;;;3.55;2.22;;;22.70;59.40;;;;;;2501198;54;20953;-71
2023/07/19 04:29:34;;;;;;;5.15;2.30;;;22.80;59.60;;;;;;2502345;54;20904;-67
2023/07/19 04:32:00;;;;;;;5.45;2.60;;;22.80;59.70;;;;;;2527930;54;21742;-69
2023/07/19 04:34:27;;;;;;;4.40;2.40;;;22.80;59.70;;;;;;2292694;56;20929;-69
2023/07/19 04:36:53;;;;;;;4.10;2.30;;;22.80;59.70;;;;;;2292516;56;20976;-68
2023/07/19 04:39:21;;;;;;;4.00;1.95;;;22.80;59.70;;;;;;2510121;54;20958;-68
2023/07/19 04:41:47;;;;;;;4.37;1.67;;;22.80;59.80;;;;;;2502089;54;20944;-69
2023/07/19 04:44:13;;;;;;;4.90;2.22;;;22.80;59.70;;;;;;2517558;54;21332;-69
2023/07/19 04:46:40;;;;;;;3.97;1.80;;;22.80;59.70;;;;;;2292716;55;20927;-70
2023/07/19 04:49:06;;;;;;;4.40;1.98;;;22.80;59.80;;;;;;2292582;55;20924;-68
2023/07/19 04:51:33;;;;;;;3.62;1.70;;;22.90;59.80;;;;;;2528192;54;20909;-66
2023/07/19 04:53:59;;;;;;;3.53;2.03;;;22.90;59.80;;;;;;2522099;54;22225;-67
2023/07/19 04:56:26;;;;;;;3.70;2.00;;;22.90;59.80;;;;;;2274506;55;20926;-68
2023/07/19 04:58:52;;;;;;;3.30;1.55;;;22.90;59.80;;;;;;2292593;55;20928;-67
2023/07/19 05:01:18;;;;;;;3.12;1.83;;;22.90;59.80;;;;;;2528256;54;20913;-69
2023/07/19 05:03:45;;;;;;;3.40;2.15;;;22.90;59.80;;;;;;2294005;55;20944;-70
2023/07/19 05:06:12;;;;;;;3.42;1.98;;;23.00;60.00;;;;;;2501740;54;20986;-68
2023/07/19 05:08:38;;;;;;;3.37;1.83;;;23.00;60.00;;;;;;2285447;55;21455;-67
2023/07/19 05:11:07;;;;;;;3.12;1.62;;;23.00;59.90;;;;;;2515205;54;20916;-69
2023/07/19 05:13:33;;;;;;;3.80;2.03;;;23.00;60.00;;;;;;2528667;54;20960;-70
2023/07/19 05:16:01;;;;;;;4.82;2.08;;;23.00;59.90;;;;;;2527992;54;20928;-68
2023/07/19 05:18:29;;;;;;;3.95;1.60;;;23.00;59.90;;;;;;2293107;56;20967;-68
2023/07/19 05:20:56;;;;;;;3.42;1.62;;;23.10;60.00;;;;;;2292416;55;21723;-68
2023/07/19 05:23:23;;;;;;;3.47;1.90;;;23.10;60.10;;;;;;2292851;55;21032;-68
2023/07/19 05:25:50;;;;;;;3.25;1.90;;;23.10;60.10;;;;;;2293033;55;21020;-68
2023/07/19 05:28:20;;;;;;;3.03;1.70;;;23.10;60.10;;;;;;2528736;54;21012;-68
2023/07/19 05:30:50;;;;;;;3.20;1.70;;;23.10;60.10;;;;;;2292920;55;20892;-68
2023/07/19 05:33:17;;;;;;;3.10;1.60;;;23.20;60.10;;;;;;2292690;55;20903;-67
2023/07/19 05:35:46;;;;;;;4.28;1.87;;;23.20;60.10;;;;;;2528182;54;20916;-67
2023/07/19 05:38:12;;;;;;;3.80;1.92;;;23.20;60.10;;;;;;2528450;54;21805;-71
2023/07/19 05:40:39;;;;;;;3.22;1.80;;;23.20;60.10;;;;;;2293326;55;20984;-70
2023/07/19 05:43:05;;;;;;;4.70;2.22;;;23.30;60.10;;;;;;2292968;55;20987;-67
2023/07/19 05:45:32;;;;;;;3.35;2.03;;;23.30;60.10;;;;;;2528262;54;20932;-69
2023/07/19 05:47:58;;;;;;;3.75;2.08;;;23.30;60.10;;;;;;2527460;54;20888;-71
2023/07/19 05:50:25;;;;;;;5.47;2.35;;;23.40;60.20;;;;;;2293059;55;21494;-69
2023/07/19 05:52:51;;;;;;;4.65;2.20;;;23.40;60.10;;;;;;2292426;55;21049;-69
2023/07/19 05:55:17;;;;;;;4.75;2.03;;;23.40;60.10;;;;;;2293074;55;21004;-68
2023/07/19 05:57:44;;;;;;;3.92;2.10;;;23.50;60.20;;;;;;2292611;55;21696;-67
2023/07/19 06:00:28;;;;;;;4.57;2.15;;;23.50;60.30;;;;;;2293094;55;20916;-68
2023/07/19 06:02:55;;;;;;;5.87;2.30;;;23.60;60.40;;;;;;2511473;54;20954;-69
2023/07/19 06:05:23;;;;;;;3.28;1.70;;;23.60;60.30;;;;;;2284358;55;20931;-68
2023/07/19 06:07:50;;;;;;;4.57;2.08;;;23.60;60.40;;;;;;2292173;56;20948;-68
2023/07/19 06:10:16;;;;;;;4.15;2.10;;;23.70;60.50;;;;;;2521553;54;22055;-69
2023/07/19 06:12:45;;;;;;;4.75;2.12;;;23.80;60.60;;;;;;2276780;55;21008;-68
2023/07/19 06:15:11;;;;;;;3.60;2.03;;;23.90;60.80;;;;;;2292704;55;20921;-70
2023/07/19 06:17:39;;;;;;;3.87;2.30;;;23.90;60.80;;;;;;2528220;54;20972;-68
2023/07/19 06:20:07;;;;;;;3.83;2.37;;;24.00;60.70;;;;;;2292628;55;21291;-68
2023/07/19 06:22:33;;;;;;;5.75;2.62;;;24.10;61.40;;;;;;2528207;54;20996;-67
2023/07/19 06:25:00;;;;;;;3.78;2.20;;;24.20;60.70;;;;;;2292599;55;20912;-68
2023/07/19 06:27:26;;;;;;;4.43;2.45;;;24.30;60.70;;;;;;2292542;55;20981;-68
2023/07/19 06:29:52;;;;;;;4.03;1.87;;;24.30;60.60;;;;;;2528196;54;20944;-68
2023/07/19 06:32:19;;;;;;;3.75;1.92;;;24.40;60.70;;;;;;2528416;54;21509;-69
2023/07/19 06:34:47;;;;;;;3.72;2.08;;;24.50;60.70;;;;;;2293293;55;20917;-67
2023/07/19 06:37:14;;;;;;;3.50;2.00;;;24.60;60.80;;;;;;2527323;54;20968;-71
2023/07/19 06:39:40;;;;;;;4.50;1.92;;;24.70;60.70;;;;;;2528396;54;20925;-69
2023/07/19 06:42:07;;;;;;;6.20;2.25;;;24.80;60.60;;;;;;2503324;54;20942;-69
2023/07/19 06:44:35;;;;;;;4.43;2.05;;;24.90;60.60;;;;;;2285745;55;20989;-68
2023/07/19 06:47:03;;;;;;;4.22;1.92;;;25.00;60.60;;;;;;2279356;55;20935;-68
2023/07/19 06:49:30;;;;;;;3.62;1.90;;;25.00;60.40;;;;;;2293065;55;20928;-67
2023/07/19 06:52:00;;;;;;;3.10;1.60;;;25.10;60.30;;;;;;2528198;54;20952;-69
2023/07/19 06:54:27;;;;;;;3.70;1.85;;;25.20;60.40;;;;;;2528432;54;21437;-69
2023/07/19 06:56:53;;;;;;;3.78;1.85;;;25.30;60.30;;;;;;2292847;55;20932;-68
2023/07/19 06:59:19;;;;;;;3.67;1.85;;;25.40;60.30;;;;;;2292725;55;20944;-69
2023/07/19 07:01:46;;;;;;;3.67;2.05;;;25.50;60.10;;;;;;2292935;55;20928;-70
2023/07/19 07:04:14;;;;;;;3.53;1.80;;;25.50;60.00;;;;;;2293025;55;21381;-68
2023/07/19 07:06:43;;;;;;;3.28;1.98;;;25.60;59.90;;;;;;2293162;55;21390;-68
2023/07/19 07:09:10;;;;;;;3.78;1.80;;;25.70;59.90;;;;;;2292454;55;20944;-69
2023/07/19 07:11:37;;;;;;;3.08;1.60;;;25.80;59.70;;;;;;2528305;54;20936;-67
2023/07/19 07:14:03;;;;;;;3.10;1.67;;;25.90;59.70;;;;;;2293282;55;20943;-69
2023/07/19 07:16:30;;;;;;;2.92;1.70;;;26.00;59.70;;;;;;2293041;55;21403;-69
2023/07/19 07:18:56;;;;;;;4.62;1.92;;;26.00;59.50;;;;;;2528105;54;21838;-69
2023/07/19 07:21:23;;;;;;;3.75;2.00;;;26.10;59.30;;;;;;2527733;54;20952;-69
2023/07/19 07:23:49;;;;;;;3.47;1.80;;;26.20;59.40;;;;;;2292733;55;20920;-68
2023/07/19 07:26:16;;;;;;;3.95;2.08;;;26.20;59.10;;;;;;2527789;54;21053;-68
2023/07/19 07:28:42;;;;;;;3.80;2.08;;;26.30;59.10;;;;;;2294025;55;20908;-67
2023/07/19 07:31:11;;;;;;;3.60;2.17;;;26.30;59.00;;;;;;2292325;55;21104;-69
2023/07/19 07:33:38;;;;;;;3.85;2.10;;;26.40;58.90;;;;;;2528482;54;20909;-72
2023/07/19 07:36:04;;;;;;;4.78;2.15;;;26.50;58.90;;;;;;2526039;54;20936;-69
2023/07/19 07:38:31;;;;;;;4.93;2.42;;;26.50;58.80;;;;;;2273209;55;20897;-71
2023/07/19 07:41:05;;;;;;;4.82;2.40;;;26.60;58.90;;;;;;2527575;54;20928;-68
2023/07/19 07:43:31;;;;;;;4.25;2.10;;;26.70;58.80;;;;;;2294093;55;21912;-68
2023/07/19 07:46:00;;;;;;;4.35;1.83;;;26.70;58.90;;;;;;2527898;54;20940;-70
2023/07/19 07:48:30;;;;;;;4.37;2.20;;;26.80;58.90;;;;;;2292407;55;21096;-69
2023/07/19 07:50:56;;;;;;;5.43;2.40;;;26.90;58.80;;;;;;2527623;54;21008;-69
2023/07/19 07:53:22;;;;;;;4.43;2.50;;;26.90;58.60;;;;;;2292102;55;20908;-72
2023/07/19 07:55:49;;;;;;;4.35;2.55;;;27.00;58.50;;;;;;2501337;54;21036;-71
2023/07/19 07:58:15;;;;;;;4.43;2.53;;;27.10;58.30;;;;;;2276182;55;20974;-70
2023/07/19 08:00:41;;;;;;;4.95;2.58;;;27.10;58.30;;;;;;2527047;54;20904;-69
2023/07/19 08:03:10;;;;;;;3.95;2.40;;;27.20;58.20;;;;;;2528528;54;21449;-69
2023/07/19 08:05:37;;;;;;;3.72;2.10;;;27.20;58.10;;;;;;2527560;54;20928;-70
2023/07/19 08:08:05;;;;;;;4.53;2.45;;;27.30;58.10;;;;;;2528751;54;21049;-70
2023/07/19 08:10:39;;;;;;;3.40;1.87;;;27.30;57.80;;;;;;2528669;54;20964;-71
2023/07/19 08:13:06;;;;;;;3.80;2.00;;;27.40;57.70;;;;;;2282985;55;20966;-71
2023/07/19 08:15:34;;;;;;;3.30;2.00;;;27.40;57.80;;;;;;2517938;54;20920;-73
2023/07/19 08:18:00;;;;;;;5.75;1.92;;;27.50;57.50;;;;;;2526903;54;20933;-71
2023/07/19 08:20:26;;;;;;;4.22;1.70;;;27.60;57.40;;;;;;2294085;55;20971;-71
2023/07/19 08:22:53;;;;;;;3.92;1.83;;;27.60;57.20;;;;;;2291688;55;20912;-71
2023/07/19 08:25:19;;;;;;;3.87;2.08;;;27.70;57.10;;;;;;2294368;55;21912;-73
2023/07/19 08:27:53;;;;;;;4.10;2.00;;;27.80;57.50;;;;;;2528717;54;21016;-68
2023/07/19 08:30:19;;;;;;;3.42;1.62;;;27.90;56.70;;;;;;2292862;55;21036;-70
2023/07/19 08:32:49;;;;;;;3.85;1.90;;;27.90;56.60;;;;;;2527363;54;20944;-70
2023/07/19 08:35:15;;;;;;;3.60;2.37;;;28.00;56.60;;;;;;2526193;54;21642;-73
2023/07/19 08:37:43;;;;;;;4.87;2.17;;;28.10;56.60;;;;;;2292687;55;21765;-71
2023/07/19 08:40:15;;;;;;;4.07;2.20;;;28.10;57.10;;;;;;2527610;54;20885;-70
2023/07/19 08:42:42;;;;;;;4.25;2.30;;;28.20;56.20;;;;;;2527888;54;20940;-71
2023/07/19 08:45:10;;;;;;;3.33;1.90;;;28.30;56.20;;;;;;2282504;55;21367;-72
2023/07/19 08:47:41;;;;;;;4.00;2.40;;;28.30;56.00;;;;;;2284051;55;20996;-68
2023/07/19 08:50:10;;;;;;;4.03;2.40;;;28.40;56.00;;;;;;2292958;55;20988;-70
2023/07/19 08:52:36;;;;;;;4.30;2.53;;;28.50;55.90;;;;;;2294251;55;20924;-67
2023/07/19 08:55:04;;;;;;;4.35;2.30;;;28.50;55.70;;;;;;2290138;55;21066;-69
2023/07/19 08:57:30;;;;;;;4.37;2.08;;;28.60;55.60;;;;;;2496893;54;20998;-68
2023/07/19 08:59:59;;;;;;;5.18;2.90;;;28.60;55.50;;;;;;2527438;54;20952;-67
2023/07/19 09:02:25;;;;;;;2.95;1.75;;;28.70;55.30;;;;;;2528841;54;20945;-69
2023/07/19 09:05:11;;;;;;;3.97;1.95;;;28.70;55.30;;;;;;2293058;55;20952;-69
2023/07/19 09:07:38;;;;;;;3.37;1.92;;;28.80;54.90;;;;;;2527644;54;20940;-70
2023/07/19 09:10:09;;;;;;;5.07;2.12;;;28.80;55.20;;;;;;2291313;55;21076;-69
2023/07/19 09:12:42;;;;;;;4.20;2.28;;;28.80;54.80;;;;;;2292643;55;20968;-68
2023/07/19 09:15:09;;;;;;;3.75;1.98;;;28.90;54.80;;;;;;2292272;56;21003;-68
2023/07/19 09:17:37;;;;;;;3.47;1.77;;;29.00;54.80;;;;;;2293036;55;20940;-70
2023/07/19 09:20:04;;;;;;;5.55;2.72;;;29.00;54.80;;;;;;2527285;54;20924;-69
2023/07/19 09:22:33;;;;;;;6.97;2.72;;;29.00;54.90;;;;;;2528035;54;20932;-68
2023/07/19 09:25:03;;;;;;;3.92;2.28;;;29.10;54.70;;;;;;2527050;54;20905;-71
2023/07/19 09:27:30;;;;;;;4.03;2.45;;;29.10;54.90;;;;;;2274555;55;21089;-69
2023/07/19 09:29:56;;;;;;;5.75;2.85;;;29.20;54.80;;;;;;2292667;55;20904;-71
2023/07/19 09:32:24;;;;;;;4.65;2.33;;;29.20;54.60;;;;;;2527967;54;20893;-69
2023/07/19 09:34:54;;;;;;;4.07;2.42;;;29.30;54.50;;;;;;2292783;55;20943;-68
2023/07/19 09:37:25;;;;;;;5.45;2.47;;;29.30;54.50;;;;;;2292640;55;20997;-70
2023/07/19 09:39:52;;;;;;;5.55;2.70;;;29.40;54.50;;;;;;2292845;55;21009;-70
2023/07/19 09:42:18;;;;;;;3.40;2.08;;;29.40;54.40;;;;;;2292441;55;21043;-68
2023/07/19 09:44:48;;;;;;;4.78;2.90;;;29.40;54.40;;;;;;2293914;55;20948;-69
2023/07/19 09:47:16;;;;;;;4.87;2.62;;;29.50;54.30;;;;;;2273363;55;21456;-68
2023/07/19 09:49:48;;;;;;;5.15;2.35;;;29.60;54.30;;;;;;2274111;55;21023;-68
2023/07/19 09:52:18;;;;;;;4.20;2.50;;;29.60;54.30;;;;;;2500182;54;20977;-68
2023/07/19 09:54:49;;;;;;;5.20;2.72;;;29.70;54.10;;;;;;2292778;55;20939;-68
2023/07/19 09:57:15;;;;;;;4.93;2.60;;;29.70;54.00;;;;;;2527663;54;20961;-68
2023/07/19 09:59:44;;;;;;;5.57;2.60;;;29.70;54.00;;;;;;2528139;54;20930;-68
2023/07/19 10:02:11;;;;;;;4.97;2.47;;;29.80;53.70;;;;;;2291940;55;20909;-68
2023/07/19 10:04:38;;;;;;;5.45;2.60;;;29.80;53.70;;;;;;2273869;55;20973;-69
2023/07/19 10:07:12;;;;;;;4.15;2.28;;;29.90;53.70;;;;;;2291733;55;20953;-68
2023/07/19 10:09:43;;;;;;;7.35;2.37;;;29.90;53.40;;;;;;2276987;55;21147;-68
2023/07/19 10:12:31;;;;;;;5.10;2.28;;;29.90;53.30;;;;;;2290155;55;20928;-69
2023/07/19 10:15:07;;;;;;;3.97;2.40;;;30.10;52.70;;;;;;2526515;54;21457;-67
2023/07/19 10:17:41;;;;;;;3.85;1.98;;;30.00;52.80;;;;;;2293660;55;20956;-69
2023/07/19 10:20:12;;;;;;;4.35;2.15;;;30.00;52.70;;;;;;2527462;54;20976;-71
2023/07/19 10:23:24;;;;;;;3.37;1.60;;;30.00;52.90;;;;;;2527998;54;20963;-69
2023/07/19 10:25:51;;;;;;;3.47;1.67;;;30.20;52.60;;;;;;2527446;54;20980;-69
2023/07/19 10:28:29;;;;;;;4.28;2.05;;;30.20;52.80;;;;;;2292351;56;20964;-68
2023/07/19 10:30:56;;;;;;;4.32;2.20;;;30.20;51.70;;;;;;2292046;55;20920;-71
2023/07/19 10:33:30;;;;;;;4.87;2.00;;;30.20;52.00;;;;;;2292156;55;21038;-67
2023/07/19 10:36:05;;;;;;;3.60;2.10;;;30.30;51.60;;;;;;2275403;55;20948;-69
2023/07/19 10:38:32;;;;;;;4.03;2.35;;;30.30;51.40;;;;;;2292565;55;21195;-68
2023/07/19 10:41:05;;;;;;;3.72;1.90;;;30.30;51.20;;;;;;2292528;55;21814;-70
2023/07/19 10:43:32;;;;;;;4.00;1.90;;;30.40;50.80;;;;;;2292926;55;21823;-71
2023/07/19 10:46:10;;;;;;;4.97;2.00;;;30.40;51.00;;;;;;2291043;55;21461;-71
2023/07/19 10:48:36;;;;;;;4.87;1.92;;;30.40;50.90;;;;;;2527945;54;21496;-67
2023/07/19 10:51:10;;;;;;;4.05;1.92;;;30.40;50.90;;;;;;2292277;55;20980;-70
2023/07/19 10:53:40;;;;;;;;;;;30.50;50.80;;;;;;2531819;54;20960;-68
2023/07/19 10:56:07;;;;;;;3.78;1.77;;;30.60;50.90;;;;;;2528014;54;20342;-70
2023/07/19 10:58:33;;;;;;;3.67;1.95;;;30.60;51.20;;;;;;2528386;54;20904;-69
2023/07/19 11:01:00;;;;;;;4.05;1.92;;;30.70;51.10;;;;;;2292096;55;20932;-72
2023/07/19 11:03:27;;;;;;;3.95;1.95;;;30.70;50.90;;;;;;2292362;56;21796;-69
2023/07/19 11:05:53;;;;;;;3.85;2.00;;;30.80;50.70;;;;;;2292954;55;21012;-68
2023/07/19 11:08:24;;;;;;;3.25;1.85;;;30.80;50.30;;;;;;2504668;54;20953;-69
2023/07/19 11:10:53;;;;;;;5.97;1.90;;;30.90;50.10;;;;;;2290462;55;21032;-70
2023/07/19 11:13:26;;;;;;;4.05;2.12;;;30.90;49.70;;;;;;2527062;54;20952;-69
2023/07/19 11:15:59;;;;;;;3.83;1.62;;;31.00;49.30;;;;;;2292786;56;21008;-70
2023/07/19 11:18:43;;;;;;;3.70;1.87;;;31.00;49.00;;;;;;2274704;55;20893;-69
2023/07/19 11:21:10;;;;;;;3.85;1.90;;;31.10;49.10;;;;;;2292581;55;20940;-69
2023/07/19 11:23:41;;;;;;;3.80;2.00;;;31.10;49.00;;;;;;2527375;54;20940;-69
2023/07/19 11:26:08;;;;;;;3.62;1.77;;;31.20;48.80;;;;;;2292109;55;21476;-68
2023/07/19 11:28:57;;;;;;;4.28;1.83;;;31.30;48.50;;;;;;2292568;55;20988;-69
2023/07/19 11:31:42;;;;;;;3.80;1.70;;;31.30;47.60;;;;;;2292328;55;20973;-68
2023/07/19 11:34:10;;;;;;;3.70;1.65;;;31.40;46.90;;;;;;2527928;54;20920;-68
2023/07/19 11:36:40;;;;;;;3.03;1.60;;;31.50;47.70;;;;;;2527781;54;20940;-68
2023/07/19 11:39:23;;;;;;;3.95;2.00;;;31.50;47.00;;;;;;2292449;56;20975;-68
2023/07/19 11:41:49;;;;;;;3.30;1.50;;;31.60;46.20;;;;;;2528434;54;21480;-70
2023/07/19 11:44:16;;;;;;;3.12;1.55;;;31.60;47.20;;;;;;2292098;55;20940;-69
2023/07/19 11:46:43;;;;;;;5.55;1.70;;;31.70;46.90;;;;;;2528444;54;20936;-67
2023/07/19 11:49:10;;;;;;;3.10;1.60;;;31.70;46.60;;;;;;2292193;55;20976;-66
2023/07/19 11:51:37;;;;;;;4.82;1.55;;;31.70;46.60;;;;;;2292610;55;20932;-67
2023/07/19 11:54:03;;;;;;;4.07;1.30;;;31.80;46.30;;;;;;2293394;55;21457;-68
2023/07/19 11:56:32;;;;;;;3.37;1.50;;;31.80;46.00;;;;;;2274288;55;20960;-70
2023/07/19 11:58:58;;;;;;;3.10;1.60;;;31.80;45.90;;;;;;2527112;54;20949;-69
2023/07/19 12:01:27;;;;;;;4.45;1.67;;;31.90;45.70;;;;;;2292332;55;20983;-69
2023/07/19 12:03:54;;;;;;;2.87;1.52;;;31.90;45.20;;;;;;2528156;54;20976;-68
2023/07/19 12:06:20;;;;;;;2.75;1.23;;;31.90;45.10;;;;;;2527980;54;20920;-69
2023/07/19 12:08:46;;;;;;;3.53;1.92;;;32.00;45.00;;;;;;2292303;55;20928;-70
2023/07/19 12:11:13;;;;;;;3.28;1.30;;;32.00;44.60;;;;;;2292224;55;20924;-68
2023/07/19 12:13:39;;;;;;;4.00;1.33;;;32.00;44.70;;;;;;2279762;55;21527;-68
2023/07/19 12:16:05;;;;;;;3.70;1.67;;;32.10;44.60;;;;;;2521950;54;21641;-70
2023/07/19 12:18:32;;;;;;;3.33;1.50;;;32.10;44.30;;;;;;2526749;54;20937;-69
2023/07/19 12:20:58;;;;;;;2.58;1.27;;;32.10;44.30;;;;;;2528390;54;20925;-69
2023/07/19 12:23:24;;;;;;;2.85;1.30;;;32.20;44.30;;;;;;2292362;55;20921;-69
2023/07/19 12:25:53;;;;;;;3.22;1.60;;;32.10;44.10;;;;;;2528561;54;20904;-70
2023/07/19 12:28:22;;;;;;;2.92;1.48;;;32.20;44.10;;;;;;2292832;55;20924;-69
2023/07/19 12:30:52;;;;;;;3.15;1.37;;;32.30;44.00;;;;;;2292920;55;20936;-68
2023/07/19 12:33:18;;;;;;;3.00;1.35;;;32.30;44.00;;;;;;2528199;54;21028;-68
2023/07/19 12:35:48;;;;;;;2.70;1.40;;;32.30;44.00;;;;;;2292094;55;21865;-69
2023/07/19 12:38:15;;;;;;;3.53;1.30;;;32.40;43.80;;;;;;2526580;54;20936;-69
2023/07/19 12:40:41;;;;;;;3.62;1.60;;;32.50;43.70;;;;;;2292424;55;21764;-69
2023/07/19 12:43:07;;;;;;;2.60;1.15;;;32.50;43.60;;;;;;2527165;54;20936;-68
2023/07/19 12:45:34;;;;;;;2.87;1.30;;;32.50;43.70;;;;;;2280074;55;20989;-70
2023/07/19 12:48:03;;;;;;;3.67;1.30;;;32.60;43.70;;;;;;2273501;55;20975;-68
2023/07/19 12:50:29;;;;;;;2.40;1.12;;;32.60;43.40;;;;;;2292624;55;20901;-68
2023/07/19 12:52:56;;;;;;;3.12;1.20;;;32.70;43.60;;;;;;2293041;56;20973;-68